createdAt,value
2022-09-28T00:00:16.212Z,9.36
2022-09-28T00:01:16.209Z,9.39
2022-09-28T00:02:16.322Z,9.38
2022-09-28T00:03:16.189Z,9.40
2022-09-28T00:04:16.178Z,9.42
2022-09-28T00:05:16.178Z,9.43
2022-09-28T00:06:16.149Z,9.47
2022-09-28T00:07:16.150Z,9.46
2022-09-28T00:08:16.132Z,9.47
2022-09-28T00:09:16.201Z,9.47
2022-09-28T00:10:16.110Z,9.48
2022-09-28T00:11:16.100Z,9.50
2022-09-28T00:12:16.081Z,9.43
2022-09-28T00:13:16.094Z,9.48
2022-09-28T00:14:16.063Z,9.47
2022-09-28T00:15:16.061Z,9.43
2022-09-28T00:16:16.136Z,9.42
2022-09-28T00:17:16.043Z,9.39
2022-09-28T00:18:16.032Z,9.42
2022-09-28T00:19:16.158Z,9.43
2022-09-28T00:20:16.025Z,9.42
2022-09-28T00:21:16.001Z,9.42
2022-09-28T00:22:15.993Z,9.38
2022-09-28T00:23:15.985Z,9.38
2022-09-28T00:24:16.028Z,9.36
2022-09-28T00:25:15.964Z,9.33
2022-09-28T00:26:15.942Z,9.33
2022-09-28T00:27:15.944Z,9.32
2022-09-28T00:28:15.915Z,9.32
2022-09-28T00:29:16.110Z,9.32
2022-09-28T00:30:15.902Z,9.29
2022-09-28T00:31:16.368Z,9.28
2022-09-28T00:32:15.877Z,9.24
2022-09-28T00:33:15.874Z,9.26
2022-09-28T00:34:15.858Z,9.23
2022-09-28T00:35:16.017Z,9.21
2022-09-28T00:36:15.838Z,9.20
2022-09-28T00:37:15.843Z,9.15
2022-09-28T00:38:15.815Z,9.14
2022-09-28T00:39:15.932Z,9.15
2022-09-28T00:40:15.906Z,9.11
2022-09-28T00:41:15.791Z,9.13
2022-09-28T00:42:15.779Z,9.08
2022-09-28T00:43:15.770Z,9.01
2022-09-28T00:44:15.758Z,9.02
2022-09-28T00:45:15.747Z,9.01
2022-09-28T00:46:15.781Z,9.01
2022-09-28T00:47:15.799Z,8.99
2022-09-28T00:48:15.709Z,8.94
2022-09-28T00:49:15.832Z,8.94
2022-09-28T00:50:15.690Z,8.92
2022-09-28T00:51:15.689Z,8.89
2022-09-28T00:52:15.682Z,8.86
2022-09-28T00:53:15.663Z,8.87
2022-09-28T00:54:15.654Z,8.84
2022-09-28T00:55:15.653Z,8.83
2022-09-28T00:56:15.634Z,8.81
2022-09-28T00:57:15.639Z,8.80
2022-09-28T00:58:15.612Z,8.83
2022-09-28T00:59:15.610Z,8.83
2022-09-28T01:00:15.583Z,8.81
2022-09-28T01:01:15.656Z,8.83
2022-09-28T01:02:15.606Z,8.84
2022-09-28T01:03:15.575Z,8.84
2022-09-28T01:04:15.544Z,8.83
2022-09-28T01:05:15.553Z,8.83
2022-09-28T01:06:15.535Z,8.87
2022-09-28T01:07:15.533Z,8.87
2022-09-28T01:08:15.508Z,8.83
2022-09-28T01:09:15.595Z,8.87
2022-09-28T01:10:15.486Z,8.84
2022-09-28T01:11:15.477Z,8.91
2022-09-28T01:12:15.465Z,8.91
2022-09-28T01:13:15.464Z,8.95
2022-09-28T01:14:15.466Z,8.96
2022-09-28T01:15:15.441Z,8.99
2022-09-28T01:16:15.464Z,8.99
2022-09-28T01:17:15.416Z,9.01
2022-09-28T01:18:15.437Z,9.05
2022-09-28T01:19:15.388Z,9.02
2022-09-28T01:20:15.376Z,9.08
2022-09-28T01:21:15.477Z,9.05
2022-09-28T01:22:15.366Z,9.05
2022-09-28T01:23:15.357Z,9.04
2022-09-28T01:24:15.352Z,9.02
2022-09-28T01:25:15.336Z,8.99
2022-09-28T01:26:15.480Z,9.02
2022-09-28T01:27:15.306Z,8.98
2022-09-28T01:28:15.310Z,8.98
2022-09-28T01:29:15.341Z,8.95
2022-09-28T01:30:15.289Z,8.96
2022-09-28T01:31:15.365Z,8.92
2022-09-28T01:32:15.267Z,8.92
2022-09-28T01:33:15.242Z,8.95
2022-09-28T01:34:15.242Z,8.94
2022-09-28T01:35:15.222Z,8.95
2022-09-28T01:36:15.211Z,8.95
2022-09-28T01:37:15.203Z,8.94
2022-09-28T01:38:15.202Z,8.95
2022-09-28T01:39:15.246Z,8.94
2022-09-28T01:40:15.186Z,8.94
2022-09-28T01:41:15.160Z,8.94
2022-09-28T01:42:15.152Z,8.92
2022-09-28T01:43:15.143Z,8.89
2022-09-28T01:44:15.144Z,8.89
2022-09-28T01:45:15.124Z,8.91
2022-09-28T01:46:15.143Z,8.91
2022-09-28T01:47:15.095Z,8.87
2022-09-28T01:48:15.087Z,8.92
2022-09-28T01:49:15.269Z,8.91
2022-09-28T01:50:15.084Z,8.91
2022-09-28T01:51:15.059Z,8.91
2022-09-28T01:52:15.056Z,8.92
2022-09-28T01:53:15.044Z,8.94
2022-09-28T01:54:15.055Z,8.94
2022-09-28T01:55:15.024Z,8.92
2022-09-28T01:56:15.011Z,8.94
2022-09-28T01:57:14.990Z,8.94
2022-09-28T01:58:14.998Z,8.94
2022-09-28T01:59:15.162Z,8.95
2022-09-28T02:00:14.987Z,8.96
2022-09-28T02:01:14.994Z,8.94
2022-09-28T02:02:15.054Z,8.94
2022-09-28T02:03:14.941Z,8.94
2022-09-28T02:04:14.927Z,8.96
2022-09-28T02:05:14.918Z,8.95
2022-09-28T02:06:14.909Z,8.92
2022-09-28T02:07:14.920Z,8.92
2022-09-28T02:08:14.891Z,8.92
2022-09-28T02:09:14.892Z,8.92
2022-09-28T02:10:14.871Z,8.91
2022-09-28T02:11:15.690Z,8.95
2022-09-28T02:12:14.840Z,8.92
2022-09-28T02:13:14.833Z,8.91
2022-09-28T02:14:14.833Z,8.91
2022-09-28T02:15:14.872Z,8.92
2022-09-28T02:16:14.866Z,8.92
2022-09-28T02:17:14.786Z,8.89
2022-09-28T02:18:14.816Z,8.87
2022-09-28T02:19:14.999Z,8.89
2022-09-28T02:20:14.764Z,8.91
2022-09-28T02:21:14.744Z,8.91
2022-09-28T02:22:14.743Z,8.94
2022-09-28T02:23:14.725Z,8.95
2022-09-28T02:24:17.194Z,8.92
2022-09-28T02:25:15.712Z,8.86
2022-09-28T02:26:14.712Z,8.87
2022-09-28T02:27:14.692Z,8.87
2022-09-28T02:28:14.675Z,8.84
2022-09-28T02:29:14.823Z,8.84
2022-09-28T02:30:14.673Z,8.86
2022-09-28T02:31:14.779Z,8.83
2022-09-28T02:32:14.636Z,8.84
2022-09-28T02:33:14.646Z,8.83
2022-09-28T02:34:14.637Z,8.84
2022-09-28T02:35:14.605Z,8.87
2022-09-28T02:36:14.606Z,8.81
2022-09-28T02:37:14.579Z,8.84
2022-09-28T02:38:14.586Z,8.81
2022-09-28T02:39:14.610Z,8.81
2022-09-28T02:40:14.771Z,8.84
2022-09-28T02:41:14.553Z,8.86
2022-09-28T02:42:14.549Z,8.86
2022-09-28T02:43:14.529Z,8.83
2022-09-28T02:44:14.514Z,8.81
2022-09-28T02:45:14.499Z,8.84
2022-09-28T02:46:14.527Z,8.80
2022-09-28T02:47:14.587Z,8.84
2022-09-28T02:48:14.469Z,8.83
2022-09-28T02:49:21.886Z,8.80
2022-09-28T02:50:15.450Z,8.83
2022-09-28T02:51:14.432Z,8.81
2022-09-28T02:52:14.430Z,8.80
2022-09-28T02:53:14.502Z,8.79
2022-09-28T02:54:18.542Z,8.81
2022-09-28T02:55:14.391Z,8.80
2022-09-28T02:56:14.473Z,8.77
2022-09-28T02:57:14.372Z,8.79
2022-09-28T02:58:14.395Z,8.79
2022-09-28T02:59:14.408Z,8.79
2022-09-28T03:00:14.353Z,8.80
2022-09-28T03:01:15.901Z,8.79
2022-09-28T03:02:14.422Z,8.79
2022-09-28T03:03:14.304Z,8.80
2022-09-28T03:04:14.303Z,8.77
2022-09-28T03:05:14.293Z,8.80
2022-09-28T03:06:14.290Z,8.77
2022-09-28T03:07:14.265Z,8.81
2022-09-28T03:08:14.279Z,8.81
2022-09-28T03:09:14.254Z,8.81
2022-09-28T03:10:14.244Z,8.83
2022-09-28T03:11:14.237Z,8.83
2022-09-28T03:12:14.225Z,8.81
2022-09-28T03:13:14.206Z,8.81
2022-09-28T03:14:14.205Z,8.81
2022-09-28T03:15:14.188Z,8.83
2022-09-28T03:16:14.262Z,8.83
2022-09-28T03:17:14.167Z,8.80
2022-09-28T03:18:14.224Z,8.84
2022-09-28T03:19:14.148Z,8.83
2022-09-28T03:20:14.136Z,8.80
2022-09-28T03:21:14.126Z,8.80
2022-09-28T03:22:14.126Z,8.79
2022-09-28T03:23:25.433Z,8.79
2022-09-28T03:24:15.100Z,8.77
2022-09-28T03:25:14.079Z,8.79
2022-09-28T03:26:14.072Z,8.80
2022-09-28T03:27:14.068Z,8.77
2022-09-28T03:28:14.069Z,8.77
2022-09-28T03:29:14.072Z,8.76
2022-09-28T03:30:14.031Z,8.77
2022-09-28T03:31:14.196Z,8.77
2022-09-28T03:32:14.011Z,8.79
2022-09-28T03:33:13.999Z,8.81
2022-09-28T03:34:14.010Z,8.83
2022-09-28T03:35:14.017Z,8.84
2022-09-28T03:36:13.969Z,8.81
2022-09-28T03:37:13.963Z,8.81
2022-09-28T03:38:13.953Z,8.80
2022-09-28T03:39:13.980Z,8.80
2022-09-28T03:40:13.937Z,8.80
2022-09-28T03:41:13.913Z,8.77
2022-09-28T03:42:13.905Z,8.77
2022-09-28T03:43:13.965Z,8.76
2022-09-28T03:44:13.905Z,8.76
2022-09-28T03:45:13.874Z,8.79
2022-09-28T03:46:13.928Z,8.79
2022-09-28T03:47:13.867Z,8.76
2022-09-28T03:48:13.845Z,8.77
2022-09-28T03:49:13.869Z,8.79
2022-09-28T03:50:13.837Z,8.77
2022-09-28T03:51:13.807Z,8.74
2022-09-28T03:52:13.833Z,8.74
2022-09-28T03:53:13.818Z,8.74
2022-09-28T03:54:13.806Z,8.74
2022-09-28T03:55:14.407Z,8.74
2022-09-28T03:56:13.769Z,8.76
2022-09-28T03:57:13.745Z,8.77
2022-09-28T03:58:13.757Z,8.77
2022-09-28T03:59:13.779Z,8.79
2022-09-28T04:00:13.719Z,8.79
2022-09-28T04:01:16.743Z,8.77
2022-09-28T04:02:13.796Z,8.74
2022-09-28T04:03:13.680Z,8.76
2022-09-28T04:04:13.684Z,8.79
2022-09-28T04:05:13.665Z,8.77
2022-09-28T04:06:13.672Z,8.77
2022-09-28T04:07:13.637Z,8.80
2022-09-28T04:08:13.631Z,8.79
2022-09-28T04:09:13.673Z,8.79
2022-09-28T04:10:13.790Z,8.80
2022-09-28T04:11:13.600Z,8.80
2022-09-28T04:12:13.601Z,8.83
2022-09-28T04:13:13.573Z,8.80
2022-09-28T04:14:13.582Z,8.84
2022-09-28T04:15:13.553Z,8.84
2022-09-28T04:16:13.570Z,8.81
2022-09-28T04:17:13.532Z,8.83
2022-09-28T04:18:13.743Z,8.83
2022-09-28T04:19:13.553Z,8.81
2022-09-28T04:20:13.519Z,8.80
2022-09-28T04:21:13.528Z,8.81
2022-09-28T04:22:13.494Z,8.80
2022-09-28T04:23:13.633Z,8.83
2022-09-28T04:24:13.470Z,8.81
2022-09-28T04:25:13.445Z,8.84
2022-09-28T04:26:13.462Z,8.83
2022-09-28T04:27:13.437Z,8.87
2022-09-28T04:28:13.435Z,8.86
2022-09-28T04:29:13.462Z,8.86
2022-09-28T04:30:13.415Z,8.86
2022-09-28T04:31:13.447Z,8.87
2022-09-28T04:32:13.396Z,8.87
2022-09-28T04:33:13.378Z,8.91
2022-09-28T04:34:13.366Z,8.91
2022-09-28T04:35:13.347Z,8.87
2022-09-28T04:36:13.347Z,8.84
2022-09-28T04:37:13.327Z,8.86
2022-09-28T04:38:13.347Z,8.86
2022-09-28T04:39:13.385Z,8.86
2022-09-28T04:40:13.297Z,8.86
2022-09-28T04:41:13.288Z,8.89
2022-09-28T04:42:13.289Z,8.86
2022-09-28T04:43:13.259Z,8.86
2022-09-28T04:44:13.257Z,8.86
2022-09-28T04:45:14.057Z,8.87
2022-09-28T04:46:13.315Z,8.86
2022-09-28T04:47:13.229Z,8.81
2022-09-28T04:48:13.228Z,8.80
2022-09-28T04:49:13.293Z,8.81
2022-09-28T04:50:13.206Z,8.79
2022-09-28T04:51:13.179Z,8.79
2022-09-28T04:52:18.079Z,8.79
2022-09-28T04:53:14.162Z,8.77
2022-09-28T04:54:13.161Z,8.80
2022-09-28T04:55:13.142Z,8.80
2022-09-28T04:56:13.141Z,8.79
2022-09-28T04:57:13.122Z,8.80
2022-09-28T04:58:13.134Z,8.79
2022-09-28T04:59:13.416Z,8.77
2022-09-28T05:00:13.101Z,8.74
2022-09-28T05:01:13.170Z,8.74
2022-09-28T05:02:13.090Z,8.77
2022-09-28T05:03:13.071Z,8.77
2022-09-28T05:04:13.061Z,8.77
2022-09-28T05:05:13.033Z,8.83
2022-09-28T05:06:13.044Z,8.80
2022-09-28T05:07:13.275Z,8.83
2022-09-28T05:08:13.013Z,8.83
2022-09-28T05:09:12.997Z,8.80
2022-09-28T05:10:12.985Z,8.80
2022-09-28T05:11:12.986Z,8.80
2022-09-28T05:12:12.977Z,8.79
2022-09-28T05:13:12.967Z,8.81
2022-09-28T05:14:12.945Z,8.79
2022-09-28T05:15:12.949Z,8.77
2022-09-28T05:16:12.953Z,8.79
2022-09-28T05:17:12.907Z,8.81
2022-09-28T05:18:12.921Z,8.83
2022-09-28T05:19:13.151Z,8.84
2022-09-28T05:20:12.898Z,8.83
2022-09-28T05:21:12.948Z,8.83
2022-09-28T05:22:12.868Z,8.87
2022-09-28T05:23:12.848Z,8.83
2022-09-28T05:24:12.848Z,8.89
2022-09-28T05:25:12.849Z,8.86
2022-09-28T05:26:12.938Z,8.91
2022-09-28T05:27:12.810Z,8.91
2022-09-28T05:28:12.810Z,8.91
2022-09-28T05:29:12.792Z,8.92
2022-09-28T05:30:13.594Z,8.94
2022-09-28T05:31:12.861Z,8.95
2022-09-28T05:32:12.760Z,8.99
2022-09-28T05:33:12.751Z,8.95
2022-09-28T05:34:12.745Z,8.98
2022-09-28T05:35:12.822Z,8.98
2022-09-28T05:36:12.735Z,8.98
2022-09-28T05:37:12.711Z,8.98
2022-09-28T05:38:12.703Z,9.04
2022-09-28T05:39:13.502Z,9.02
2022-09-28T05:40:12.680Z,8.99
2022-09-28T05:41:12.673Z,9.01
2022-09-28T05:42:12.653Z,9.01
2022-09-28T05:43:12.816Z,9.01
2022-09-28T05:44:12.645Z,9.01
2022-09-28T05:45:12.633Z,9.01
2022-09-28T05:46:12.680Z,9.04
2022-09-28T05:47:12.604Z,9.05
2022-09-28T05:48:12.595Z,9.05
2022-09-28T05:49:12.585Z,9.04
2022-09-28T05:50:12.565Z,9.04
2022-09-28T05:51:12.577Z,9.05
2022-09-28T05:52:12.556Z,9.04
2022-09-28T05:53:12.846Z,9.08
2022-09-28T05:54:12.536Z,9.05
2022-09-28T05:55:12.535Z,9.10
2022-09-28T05:56:12.510Z,9.08
2022-09-28T05:57:12.517Z,9.13
2022-09-28T05:58:12.490Z,9.13
2022-09-28T05:59:12.488Z,9.14
2022-09-28T06:00:12.467Z,9.17
2022-09-28T06:01:12.542Z,9.14
2022-09-28T06:02:12.575Z,9.10
2022-09-28T06:03:12.440Z,9.14
2022-09-28T06:04:12.438Z,9.13
2022-09-28T06:05:12.423Z,9.11
2022-09-28T06:06:12.407Z,9.10
2022-09-28T06:07:12.400Z,9.15
2022-09-28T06:08:12.399Z,9.15
2022-09-28T06:09:12.383Z,9.15
2022-09-28T06:10:12.372Z,9.13
2022-09-28T06:11:13.161Z,9.15
2022-09-28T06:12:12.362Z,9.17
2022-09-28T06:13:12.351Z,9.20
2022-09-28T06:14:12.322Z,9.20
2022-09-28T06:15:12.811Z,9.20
2022-09-28T06:16:12.342Z,9.20
2022-09-28T06:17:12.312Z,9.23
2022-09-28T06:18:12.279Z,9.24
2022-09-28T06:19:12.286Z,9.21
2022-09-28T06:20:12.640Z,9.24
2022-09-28T06:21:12.263Z,9.24
2022-09-28T06:22:12.252Z,9.26
2022-09-28T06:23:12.241Z,9.28
2022-09-28T06:24:12.243Z,9.32
2022-09-28T06:25:12.226Z,9.29
2022-09-28T06:26:12.202Z,9.32
2022-09-28T06:27:12.208Z,9.33
2022-09-28T06:28:12.214Z,9.36
2022-09-28T06:29:17.253Z,9.35
2022-09-28T06:30:13.165Z,9.36
2022-09-28T06:31:12.272Z,9.35
2022-09-28T06:32:12.146Z,9.36
2022-09-28T06:33:12.146Z,9.36
2022-09-28T06:34:12.125Z,9.38
2022-09-28T06:35:12.116Z,9.32
2022-09-28T06:36:12.095Z,9.33
2022-09-28T06:37:12.087Z,9.31
2022-09-28T06:38:12.706Z,9.31
2022-09-28T06:39:12.092Z,9.32
2022-09-28T06:40:12.059Z,9.32
2022-09-28T06:41:12.052Z,9.31
2022-09-28T06:42:12.039Z,9.26
2022-09-28T06:43:12.029Z,9.31
2022-09-28T06:44:12.023Z,9.28
2022-09-28T06:45:12.028Z,9.29
2022-09-28T06:46:12.078Z,9.29
2022-09-28T06:47:11.990Z,9.26
2022-09-28T06:48:11.969Z,9.24
2022-09-28T06:49:15.071Z,9.23
2022-09-28T06:50:12.958Z,9.20
2022-09-28T06:51:11.951Z,9.20
2022-09-28T06:52:11.946Z,9.17
2022-09-28T06:53:11.923Z,9.15
2022-09-28T06:54:11.913Z,9.14
2022-09-28T06:55:11.909Z,9.17
2022-09-28T06:56:11.953Z,9.18
2022-09-28T06:57:11.884Z,9.17
2022-09-28T06:58:11.870Z,9.15
2022-09-28T06:59:11.864Z,9.13
2022-09-28T07:00:11.844Z,9.14
2022-09-28T07:01:12.680Z,9.14
2022-09-28T07:02:11.883Z,9.14
2022-09-28T07:03:11.832Z,9.15
2022-09-28T07:04:11.817Z,9.17
2022-09-28T07:05:12.623Z,9.13
2022-09-28T07:06:11.793Z,9.17
2022-09-28T07:07:11.785Z,9.20
2022-09-28T07:08:11.762Z,9.17
2022-09-28T07:09:29.427Z,9.18
2022-09-28T07:10:12.748Z,9.17
2022-09-28T07:11:11.737Z,9.15
2022-09-28T07:12:11.735Z,9.14
2022-09-28T07:13:34.221Z,9.05
2022-09-28T07:14:23.627Z,9.04
2022-09-28T07:15:12.696Z,9.04
2022-09-28T07:16:11.710Z,9.10
2022-09-28T07:17:13.989Z,9.05
2022-09-28T07:18:11.780Z,9.04
2022-09-28T07:19:11.657Z,9.08
2022-09-28T07:20:18.744Z,9.11
2022-09-28T07:21:24.762Z,9.08
2022-09-28T07:22:17.457Z,9.10
2022-09-28T07:23:19.112Z,9.10
2022-09-28T07:24:13.335Z,9.11
2022-09-28T07:25:11.589Z,9.11
2022-09-28T07:26:11.576Z,9.14
2022-09-28T07:27:11.571Z,9.13
2022-09-28T07:28:11.589Z,9.15
2022-09-28T07:29:11.577Z,9.14
2022-09-28T07:30:11.612Z,9.15
2022-09-28T07:31:11.622Z,9.15
2022-09-28T07:32:11.527Z,9.15
2022-09-28T07:33:11.512Z,9.13
2022-09-28T07:34:11.611Z,9.11
2022-09-28T07:35:11.501Z,9.15
2022-09-28T07:36:11.472Z,9.21
2022-09-28T07:37:11.482Z,9.21
2022-09-28T07:38:11.461Z,9.23
2022-09-28T07:39:11.448Z,9.20
2022-09-28T07:40:11.561Z,9.20
2022-09-28T07:41:11.436Z,9.26
2022-09-28T07:42:11.463Z,9.24
2022-09-28T07:43:11.403Z,9.28
2022-09-28T07:44:11.417Z,9.26
2022-09-28T07:45:11.392Z,9.28
2022-09-28T07:46:11.426Z,9.29
2022-09-28T07:47:11.372Z,9.26
2022-09-28T07:49:12.421Z,9.28
2022-09-28T07:50:11.392Z,9.28
2022-09-28T07:51:11.324Z,9.28
2022-09-28T07:52:11.307Z,9.28
2022-09-28T07:53:11.315Z,9.28
2022-09-28T07:54:11.286Z,9.28
2022-09-28T07:55:11.285Z,9.31
2022-09-28T07:56:11.269Z,9.33
2022-09-28T07:57:11.256Z,9.33
2022-09-28T07:58:11.248Z,9.39
2022-09-28T07:59:11.256Z,9.43
2022-09-28T08:00:11.227Z,9.47
2022-09-28T08:01:11.344Z,9.51
2022-09-28T08:02:11.238Z,9.48
2022-09-28T08:03:11.199Z,9.53
2022-09-28T08:04:11.190Z,9.50
2022-09-28T08:05:11.182Z,9.53
2022-09-28T08:06:11.180Z,9.53
2022-09-28T08:07:11.161Z,9.51
2022-09-28T08:08:11.151Z,9.48
2022-09-28T08:09:11.293Z,9.48
2022-09-28T08:10:12.071Z,9.46
2022-09-28T08:11:11.120Z,9.47
2022-09-28T08:12:11.103Z,9.51
2022-09-28T08:13:11.102Z,9.50
2022-09-28T08:14:11.083Z,9.51
2022-09-28T08:15:11.081Z,9.53
2022-09-28T08:16:11.064Z,9.50
2022-09-28T08:17:11.064Z,9.47
2022-09-28T08:18:11.045Z,9.48
2022-09-28T08:19:11.041Z,9.48
2022-09-28T08:20:11.031Z,9.53
2022-09-28T08:21:11.015Z,9.53
2022-09-28T08:22:10.994Z,9.56
2022-09-28T08:23:10.996Z,9.57
2022-09-28T08:24:11.046Z,9.61
2022-09-28T08:25:10.973Z,9.58
2022-09-28T08:26:15.226Z,9.61
2022-09-28T08:27:10.955Z,9.64
2022-09-28T08:28:10.936Z,9.66
2022-09-28T08:29:10.945Z,9.68
2022-09-28T08:30:10.916Z,9.65
2022-09-28T08:31:11.053Z,9.65
2022-09-28T08:32:10.896Z,9.66
2022-09-28T08:33:10.894Z,9.72
2022-09-28T08:34:11.020Z,9.74
2022-09-28T08:35:10.876Z,9.75
2022-09-28T08:36:10.866Z,9.74
2022-09-28T08:37:10.848Z,9.74
2022-09-28T08:38:10.839Z,9.74
2022-09-28T08:39:10.837Z,9.74
2022-09-28T08:40:10.815Z,9.74
2022-09-28T08:41:10.817Z,9.74
2022-09-28T08:42:10.806Z,9.74
2022-09-28T08:43:10.797Z,9.74
2022-09-28T08:44:10.877Z,9.71
2022-09-28T08:45:10.768Z,9.72
2022-09-28T08:46:10.811Z,9.72
2022-09-28T08:47:10.868Z,9.76
2022-09-28T08:48:10.730Z,9.76
2022-09-28T08:49:24.593Z,9.78
2022-09-28T08:50:11.833Z,9.79
2022-09-28T08:51:10.710Z,9.83
2022-09-28T08:52:10.697Z,9.84
2022-09-28T08:53:10.690Z,9.87
2022-09-28T08:54:11.950Z,9.84
2022-09-28T08:55:10.663Z,9.86
2022-09-28T08:56:10.650Z,9.87
2022-09-28T08:57:10.643Z,9.89
2022-09-28T08:58:10.640Z,9.86
2022-09-28T08:59:10.622Z,9.87
2022-09-28T09:00:11.808Z,9.90
2022-09-28T09:01:10.654Z,9.91
2022-09-28T09:02:10.649Z,9.91
2022-09-28T09:03:10.582Z,9.94
2022-09-28T09:04:10.605Z,9.89
2022-09-28T09:05:10.562Z,9.90
2022-09-28T09:06:11.409Z,9.93
2022-09-28T09:07:10.544Z,9.96
2022-09-28T09:08:10.535Z,9.96
2022-09-28T09:09:10.524Z,9.96
2022-09-28T09:10:10.521Z,9.91
2022-09-28T09:11:10.886Z,9.89
2022-09-28T09:12:10.484Z,9.91
2022-09-28T09:13:10.486Z,9.86
2022-09-28T09:14:10.525Z,9.79
2022-09-28T09:15:10.456Z,9.78
2022-09-28T09:16:10.439Z,9.79
2022-09-28T09:17:10.447Z,9.84
2022-09-28T09:18:10.419Z,9.87
2022-09-28T09:19:10.418Z,9.90
2022-09-28T09:20:10.407Z,9.91
2022-09-28T09:21:10.399Z,9.89
2022-09-28T09:22:10.378Z,9.93
2022-09-28T09:23:10.379Z,9.97
2022-09-28T09:24:10.444Z,10.02
2022-09-28T09:25:10.358Z,10.09
2022-09-28T09:26:10.435Z,10.14
2022-09-28T09:27:10.329Z,10.20
2022-09-28T09:28:10.322Z,10.25
2022-09-28T09:29:10.368Z,10.26
2022-09-28T09:30:10.291Z,10.22
2022-09-28T09:31:10.331Z,10.27
2022-09-28T09:32:10.282Z,10.27
2022-09-28T09:33:10.371Z,10.22
2022-09-28T09:34:10.336Z,10.20
2022-09-28T09:35:10.252Z,10.22
2022-09-28T09:36:10.233Z,10.23
2022-09-28T09:37:10.231Z,10.22
2022-09-28T09:38:10.212Z,10.22
2022-09-28T09:39:10.212Z,10.18
2022-09-28T09:40:10.614Z,10.20
2022-09-28T09:41:10.362Z,10.25
2022-09-28T09:42:10.170Z,10.29
2022-09-28T09:43:10.164Z,10.29
2022-09-28T09:44:10.216Z,10.33
2022-09-28T09:45:10.156Z,10.38
2022-09-28T09:46:10.316Z,10.38
2022-09-28T09:47:10.126Z,10.41
2022-09-28T09:48:10.107Z,10.33
2022-09-28T09:49:10.112Z,10.38
2022-09-28T09:50:10.174Z,10.36
2022-09-28T09:51:10.090Z,10.34
2022-09-28T09:52:10.074Z,10.38
2022-09-28T09:53:10.076Z,10.44
2022-09-28T09:54:10.048Z,10.48
2022-09-28T09:55:10.037Z,10.52
2022-09-28T09:56:10.027Z,10.56
2022-09-28T09:57:10.018Z,10.60
2022-09-28T09:58:10.029Z,10.63
2022-09-28T09:59:09.998Z,10.56
2022-09-28T10:00:09.988Z,10.45
2022-09-28T10:01:10.026Z,10.38
2022-09-28T10:02:11.925Z,10.30
2022-09-28T10:03:09.949Z,10.27
2022-09-28T10:04:09.950Z,10.26
2022-09-28T10:05:09.927Z,10.27
2022-09-28T10:06:09.920Z,10.30
2022-09-28T10:07:09.919Z,10.29
2022-09-28T10:08:10.010Z,10.27
2022-09-28T10:09:09.900Z,10.22
2022-09-28T10:10:09.883Z,10.25
2022-09-28T10:11:09.860Z,10.26
2022-09-28T10:12:09.863Z,10.27
2022-09-28T10:13:09.852Z,10.32
2022-09-28T10:14:09.841Z,10.33
2022-09-28T10:15:09.843Z,10.40
2022-09-28T10:16:09.813Z,10.45
2022-09-28T10:17:09.858Z,10.45
2022-09-28T10:18:09.793Z,10.45
2022-09-28T10:19:09.897Z,10.47
2022-09-28T10:20:10.053Z,10.48
2022-09-28T10:21:09.800Z,10.47
2022-09-28T10:22:09.754Z,10.47
2022-09-28T10:23:09.744Z,10.44
2022-09-28T10:24:09.735Z,10.47
2022-09-28T10:25:10.535Z,10.52
2022-09-28T10:26:09.743Z,10.51
2022-09-28T10:27:09.705Z,10.53
2022-09-28T10:28:09.696Z,10.60
2022-09-28T10:29:10.536Z,10.59
2022-09-28T10:30:09.675Z,10.61
2022-09-28T10:31:09.729Z,10.64
2022-09-28T10:32:09.658Z,10.63
2022-09-28T10:33:09.635Z,10.64
2022-09-28T10:34:09.637Z,10.61
2022-09-28T10:35:09.609Z,10.61
2022-09-28T10:36:09.616Z,10.64
2022-09-28T10:37:09.591Z,10.64
2022-09-28T10:38:09.608Z,10.66
2022-09-28T10:39:09.571Z,10.60
2022-09-28T10:40:09.571Z,10.64
2022-09-28T10:41:09.633Z,10.64
2022-09-28T10:42:10.359Z,10.63
2022-09-28T10:43:09.531Z,10.61
2022-09-28T10:44:09.521Z,10.63
2022-09-28T10:45:09.511Z,10.59
2022-09-28T10:46:09.619Z,10.60
2022-09-28T10:47:09.490Z,10.63
2022-09-28T10:48:09.482Z,10.61
2022-09-28T10:49:09.461Z,10.66
2022-09-28T10:50:09.472Z,10.67
2022-09-28T10:51:09.442Z,10.61
2022-09-28T10:52:09.453Z,10.60
2022-09-28T10:53:09.421Z,10.61
2022-09-28T10:54:09.422Z,10.63
2022-09-28T10:55:09.393Z,10.67
2022-09-28T10:56:09.391Z,10.64
2022-09-28T10:57:13.390Z,10.66
2022-09-28T10:58:09.384Z,10.64
2022-09-28T10:59:09.354Z,10.64
2022-09-28T11:00:09.344Z,10.55
2022-09-28T11:01:09.404Z,10.51
2022-09-28T11:02:09.367Z,10.44
2022-09-28T11:03:09.596Z,10.41
2022-09-28T11:04:09.317Z,10.41
2022-09-28T11:05:09.295Z,10.40
2022-09-28T11:06:09.319Z,10.44
2022-09-28T11:07:09.276Z,10.41
2022-09-28T11:08:09.267Z,10.29
2022-09-28T11:09:09.251Z,10.27
2022-09-28T11:10:09.237Z,10.29
2022-09-28T11:11:09.227Z,10.30
2022-09-28T11:12:09.244Z,10.34
2022-09-28T11:13:09.209Z,10.34
2022-09-28T11:14:09.198Z,10.33
2022-09-28T11:15:09.182Z,10.32
2022-09-28T11:16:09.178Z,10.41
2022-09-28T11:17:09.196Z,10.42
2022-09-28T11:18:09.170Z,10.48
2022-09-28T11:19:09.144Z,10.47
2022-09-28T11:20:09.139Z,10.48
2022-09-28T11:21:12.127Z,10.51
2022-09-28T11:22:12.044Z,10.51
2022-09-28T11:23:09.102Z,10.53
2022-09-28T11:24:09.103Z,10.55
2022-09-28T11:25:09.089Z,10.63
2022-09-28T11:26:09.092Z,10.67
2022-09-28T11:27:09.062Z,10.71
2022-09-28T11:28:09.052Z,10.73
2022-09-28T11:29:09.032Z,10.71
2022-09-28T11:30:09.813Z,10.67
2022-09-28T11:31:09.108Z,10.63
2022-09-28T11:32:12.523Z,10.60
2022-09-28T11:33:10.003Z,10.61
2022-09-28T11:34:09.003Z,10.60
2022-09-28T11:35:08.973Z,10.60
2022-09-28T11:36:08.983Z,10.59
2022-09-28T11:37:08.956Z,10.60
2022-09-28T11:38:08.957Z,10.60
2022-09-28T11:39:08.943Z,10.63
2022-09-28T11:40:08.926Z,10.64
2022-09-28T11:41:08.905Z,10.67
2022-09-28T11:42:10.987Z,10.71
2022-09-28T11:43:10.730Z,10.78
2022-09-28T11:44:08.886Z,10.86
2022-09-28T11:45:08.866Z,10.89
2022-09-28T11:46:08.962Z,10.91
2022-09-28T11:47:08.856Z,10.91
2022-09-28T11:48:08.846Z,10.89
2022-09-28T11:49:08.825Z,10.91
2022-09-28T11:50:08.817Z,10.92
2022-09-28T11:51:08.801Z,10.99
2022-09-28T11:52:08.797Z,11.04
2022-09-28T11:53:08.809Z,11.14
2022-09-28T11:54:08.801Z,11.18
2022-09-28T11:55:09.607Z,11.22
2022-09-28T11:56:09.168Z,11.15
2022-09-28T11:57:08.738Z,11.17
2022-09-28T11:58:08.937Z,11.17
2022-09-28T11:59:08.737Z,11.15
2022-09-28T12:00:08.721Z,11.09
2022-09-28T12:01:08.691Z,11.11
2022-09-28T12:02:08.768Z,11.07
2022-09-28T12:03:09.662Z,10.99
2022-09-28T12:04:08.682Z,11.00
2022-09-28T12:05:08.668Z,11.02
2022-09-28T12:06:08.652Z,11.06
2022-09-28T12:07:08.641Z,11.10
2022-09-28T12:08:09.455Z,11.19
2022-09-28T12:09:08.634Z,11.25
2022-09-28T12:10:08.630Z,11.36
2022-09-28T12:11:08.583Z,11.40
2022-09-28T12:12:08.585Z,11.42
2022-09-28T12:13:08.564Z,11.42
2022-09-28T12:14:08.563Z,11.49
2022-09-28T12:15:08.544Z,11.55
2022-09-28T12:16:27.662Z,11.67
2022-09-28T12:17:09.618Z,11.75
2022-09-28T12:18:08.656Z,11.80
2022-09-28T12:19:08.536Z,11.86
2022-09-28T12:20:08.496Z,11.83
2022-09-28T12:21:08.487Z,11.91
2022-09-28T12:22:08.477Z,12.02
2022-09-28T12:23:08.461Z,11.88
2022-09-28T12:24:08.453Z,11.76
2022-09-28T12:25:08.446Z,11.67
2022-09-28T12:26:08.427Z,11.67
2022-09-28T12:27:08.418Z,11.61
2022-09-28T12:28:08.407Z,11.58
2022-09-28T12:29:08.397Z,11.58
2022-09-28T12:30:08.388Z,11.58
2022-09-28T12:31:08.411Z,11.51
2022-09-28T12:32:08.368Z,11.51
2022-09-28T12:33:08.382Z,11.40
2022-09-28T12:34:08.349Z,11.28
2022-09-28T12:35:08.331Z,11.25
2022-09-28T12:36:08.320Z,11.19
2022-09-28T12:37:08.311Z,11.15
2022-09-28T12:38:08.302Z,11.17
2022-09-28T12:39:18.941Z,11.18
2022-09-28T12:40:09.281Z,11.15
2022-09-28T12:41:08.272Z,11.10
2022-09-28T12:42:08.265Z,11.04
2022-09-28T12:43:08.241Z,11.03
2022-09-28T12:44:08.243Z,11.07
2022-09-28T12:45:08.213Z,11.09
2022-09-28T12:46:12.019Z,11.09
2022-09-28T12:47:08.235Z,11.14
2022-09-28T12:48:08.206Z,11.17
2022-09-28T12:51:09.163Z,11.15
2022-09-28T12:52:08.154Z,11.15
2022-09-28T12:53:08.135Z,11.18
2022-09-28T12:54:08.134Z,11.22
2022-09-28T12:55:08.198Z,11.11
2022-09-28T12:56:08.107Z,11.17
2022-09-28T12:57:08.093Z,11.18
2022-09-28T12:58:08.094Z,11.18
2022-09-28T12:59:08.073Z,11.18
2022-09-28T13:00:08.067Z,11.18
2022-09-28T13:01:08.077Z,11.24
2022-09-28T13:02:08.140Z,11.25
2022-09-28T13:03:08.027Z,11.36
2022-09-28T13:04:12.624Z,11.35
2022-09-28T13:05:09.010Z,11.32
2022-09-28T13:06:07.998Z,11.36
2022-09-28T13:07:07.991Z,11.40
2022-09-28T13:08:07.979Z,11.39
2022-09-28T13:09:07.970Z,11.40
2022-09-28T13:10:07.963Z,11.42
2022-09-28T13:11:08.201Z,11.42
2022-09-28T13:12:07.940Z,11.47
2022-09-28T13:13:07.921Z,11.47